sensor_id;sensor_type;location;lat;lon;timestamp;pressure;altitude;pressure_sealevel;temperature;humidity
32298;BME280;18782;48.984;8.548;2022-10-31T00:01:18;100434.22;;;11.76;100.00
32298;BME280;18782;48.984;8.548;2022-10-31T00:03:46;100421.31;;;11.76;100.00
32298;BME280;18782;48.984;8.548;2022-10-31T00:06:13;100428.97;;;11.73;100.00
32298;BME280;18782;48.984;8.548;2022-10-31T00:08:41;100428.16;;;11.74;100.00
32298;BME280;18782;48.984;8.548;2022-10-31T00:11:09;100432.41;;;11.74;100.00
32298;BME280;18782;48.984;8.548;2022-10-31T00:13:38;100431.47;;;11.70;100.00
32298;BME280;18782;48.984;8.548;2022-10-31T00:16:13;100427.94;;;11.68;100.00
32298;BME280;18782;48.984;8.548;2022-10-31T00:18:41;100429.63;;;11.66;100.00
32298;BME280;18782;48.984;8.548;2022-10-31T00:21:08;100427.06;;;11.66;100.00
32298;BME280;18782;48.984;8.548;2022-10-31T00:23:36;100429.53;;;11.63;100.00
32298;BME280;18782;48.984;8.548;2022-10-31T00:26:04;100421.75;;;11.62;100.00
32298;BME280;18782;48.984;8.548;2022-10-31T00:28:33;100428.63;;;11.61;100.00
32298;BME280;18782;48.984;8.548;2022-10-31T00:31:04;100421.72;;;11.60;100.00
32298;BME280;18782;48.984;8.548;2022-10-31T00:33:33;100419.06;;;11.57;100.00
32298;BME280;18782;48.984;8.548;2022-10-31T00:36:03;100425.09;;;11.58;99.89
32298;BME280;18782;48.984;8.548;2022-10-31T00:38:31;100427.53;;;11.53;99.92
32298;BME280;18782;48.984;8.548;2022-10-31T00:40:59;100425.72;;;11.49;100.00
32298;BME280;18782;48.984;8.548;2022-10-31T00:43:27;100429.03;;;11.45;100.00
32298;BME280;18782;48.984;8.548;2022-10-31T00:45:55;100424.72;;;11.44;100.00
32298;BME280;18782;48.984;8.548;2022-10-31T00:48:25;100425.59;;;11.44;100.00
32298;BME280;18782;48.984;8.548;2022-10-31T00:50:53;100422.03;;;11.41;100.00
32298;BME280;18782;48.984;8.548;2022-10-31T00:53:22;100423.72;;;11.39;100.00
32298;BME280;18782;48.984;8.548;2022-10-31T00:55:49;100420.13;;;11.34;100.00
32298;BME280;18782;48.984;8.548;2022-10-31T00:58:18;100425.19;;;11.31;100.00
32298;BME280;18782;48.984;8.548;2022-10-31T01:00:46;100416.59;;;11.32;100.00
32298;BME280;18782;48.984;8.548;2022-10-31T01:03:22;100426.00;;;11.30;100.00
32298;BME280;18782;48.984;8.548;2022-10-31T01:05:58;100426.75;;;11.26;100.00
32298;BME280;18782;48.984;8.548;2022-10-31T01:08:27;100418.09;;;11.23;100.00
32298;BME280;18782;48.984;8.548;2022-10-31T01:10:59;100421.53;;;11.22;100.00
32298;BME280;18782;48.984;8.548;2022-10-31T01:13:27;100426.75;;;11.26;100.00
32298;BME280;18782;48.984;8.548;2022-10-31T01:15:55;100433.56;;;11.23;100.00
32298;BME280;18782;48.984;8.548;2022-10-31T01:18:24;100423.16;;;11.20;100.00
32298;BME280;18782;48.984;8.548;2022-10-31T01:21:01;100423.16;;;11.20;100.00
32298;BME280;18782;48.984;8.548;2022-10-31T01:23:30;100430.06;;;11.21;100.00
32298;BME280;18782;48.984;8.548;2022-10-31T01:26:03;100425.56;;;11.14;100.00
32298;BME280;18782;48.984;8.548;2022-10-31T01:28:32;100423.69;;;11.09;100.00
32298;BME280;18782;48.984;8.548;2022-10-31T01:31:01;100427.00;;;11.06;100.00
32298;BME280;18782;48.984;8.548;2022-10-31T01:33:29;100424.38;;;11.03;100.00
32298;BME280;18782;48.984;8.548;2022-10-31T01:35:57;100419.22;;;11.03;100.00
32298;BME280;18782;48.984;8.548;2022-10-31T01:38:26;100424.25;;;11.00;100.00
32298;BME280;18782;48.984;8.548;2022-10-31T01:40:53;100421.69;;;11.00;100.00
32298;BME280;18782;48.984;8.548;2022-10-31T01:43:21;100424.25;;;11.00;100.00
32298;BME280;18782;48.984;8.548;2022-10-31T01:45:51;100421.69;;;11.00;100.00
32298;BME280;18782;48.984;8.548;2022-10-31T01:48:23;100426.69;;;10.95;100.00
32298;BME280;18782;48.984;8.548;2022-10-31T01:50:54;100423.22;;;10.93;100.00
32298;BME280;18782;48.984;8.548;2022-10-31T01:53:22;100420.63;;;10.93;100.00
32298;BME280;18782;48.984;8.548;2022-10-31T01:55:54;100420.50;;;10.89;100.00
32298;BME280;18782;48.984;8.548;2022-10-31T01:58:24;100416.22;;;10.89;100.00
32298;BME280;18782;48.984;8.548;2022-10-31T02:00:56;100423.78;;;10.85;100.00
32298;BME280;18782;48.984;8.548;2022-10-31T02:03:32;100419.50;;;10.85;100.00
32298;BME280;18782;48.984;8.548;2022-10-31T02:06:00;100415.16;;;10.83;100.00
32298;BME280;18782;48.984;8.548;2022-10-31T02:08:31;100420.31;;;10.83;100.00
32298;BME280;18782;48.984;8.548;2022-10-31T02:11:01;100418.56;;;10.82;100.00
32298;BME280;18782;48.984;8.548;2022-10-31T02:13:29;100417.69;;;10.81;100.00
32298;BME280;18782;48.984;8.548;2022-10-31T02:15:58;100420.31;;;10.83;100.00
32298;BME280;18782;48.984;8.548;2022-10-31T02:18:29;100413.41;;;10.82;100.00
32298;BME280;18782;48.984;8.548;2022-10-31T02:21:03;100419.44;;;10.82;100.00
32298;BME280;18782;48.984;8.548;2022-10-31T02:24:04;100408.25;;;10.82;100.00
32298;BME280;18782;48.984;8.548;2022-10-31T02:26:53;100417.69;;;10.81;100.00
32298;BME280;18782;48.984;8.548;2022-10-31T02:29:57;100406.53;;;10.81;100.00
32298;BME280;18782;48.984;8.548;2022-10-31T02:32:38;100415.00;;;10.78;99.92
32298;BME280;18782;48.984;8.548;2022-10-31T02:35:13;100407.19;;;10.75;100.00
32298;BME280;18782;48.984;8.548;2022-10-31T02:37:48;100402.72;;;10.69;100.00
32298;BME280;18782;48.984;8.548;2022-10-31T02:40:22;100413.09;;;10.71;100.00
32298;BME280;18782;48.984;8.548;2022-10-31T02:43:26;100416.41;;;10.68;100.00
32298;BME280;18782;48.984;8.548;2022-10-31T02:45:58;100403.47;;;10.65;100.00
32298;BME280;18782;48.984;8.548;2022-10-31T02:48:34;100412.09;;;10.67;100.00
32298;BME280;18782;48.984;8.548;2022-10-31T02:51:05;100406.97;;;10.67;100.00
32298;BME280;18782;48.984;8.548;2022-10-31T02:53:36;100413.69;;;10.64;99.54
32298;BME280;18782;48.984;8.548;2022-10-31T02:56:08;100417.06;;;10.61;99.55
32298;BME280;18782;48.984;8.548;2022-10-31T02:58:41;100416.13;;;10.59;99.67
32298;BME280;18782;48.984;8.548;2022-10-31T03:01:21;100408.41;;;10.59;99.50
32298;BME280;18782;48.984;8.548;2022-10-31T03:04:02;100411.78;;;10.57;100.00
32298;BME280;18782;48.984;8.548;2022-10-31T03:06:40;100411.66;;;10.54;99.35
32298;BME280;18782;48.984;8.548;2022-10-31T03:09:13;100413.28;;;10.50;99.40
32298;BME280;18782;48.984;8.548;2022-10-31T03:11:53;100408.94;;;10.49;99.62
32298;BME280;18782;48.984;8.548;2022-10-31T03:14:31;100415.84;;;10.50;99.22
32298;BME280;18782;48.984;8.548;2022-10-31T03:17:05;100419.19;;;10.48;99.78
32298;BME280;18782;48.984;8.548;2022-10-31T03:19:39;100416.66;;;10.49;99.88
32298;BME280;18782;48.984;8.548;2022-10-31T03:22:12;100410.59;;;10.47;100.00
32298;BME280;18782;48.984;8.548;2022-10-31T03:24:43;100419.22;;;10.49;99.79
32298;BME280;18782;48.984;8.548;2022-10-31T03:27:16;100418.34;;;10.49;100.00
32298;BME280;18782;48.984;8.548;2022-10-31T03:29:46;100417.41;;;10.45;99.33
32298;BME280;18782;48.984;8.548;2022-10-31T03:32:19;100413.69;;;10.37;99.87
32298;BME280;18782;48.984;8.548;2022-10-31T03:34:53;100415.34;;;10.35;99.73
32298;BME280;18782;48.984;8.548;2022-10-31T03:37:23;100411.78;;;10.31;99.82
32298;BME280;18782;48.984;8.548;2022-10-31T03:39:53;100403.97;;;10.28;100.00
32298;BME280;18782;48.984;8.548;2022-10-31T03:42:24;100403.09;;;10.28;100.00
32298;BME280;18782;48.984;8.548;2022-10-31T03:44:56;100404.75;;;10.26;100.00
32298;BME280;18782;48.984;8.548;2022-10-31T03:47:27;100411.56;;;10.24;100.00
32298;BME280;18782;48.984;8.548;2022-10-31T03:49:56;100407.13;;;10.21;100.00
32298;BME280;18782;48.984;8.548;2022-10-31T03:52:28;100401.94;;;10.19;100.00
32298;BME280;18782;48.984;8.548;2022-10-31T03:55:00;100402.78;;;10.18;100.00
32298;BME280;18782;48.984;8.548;2022-10-31T03:57:35;100397.53;;;10.15;100.00
32298;BME280;18782;48.984;8.548;2022-10-31T04:00:08;100405.13;;;10.12;100.00
32298;BME280;18782;48.984;8.548;2022-10-31T04:02:48;100404.31;;;10.13;100.00
32298;BME280;18782;48.984;8.548;2022-10-31T04:05:20;100400.81;;;10.11;100.00
32298;BME280;18782;48.984;8.548;2022-10-31T04:07:53;100399.91;;;10.09;100.00
32298;BME280;18782;48.984;8.548;2022-10-31T04:10:22;100393.81;;;10.07;100.00
32298;BME280;18782;48.984;8.548;2022-10-31T04:13:02;100399.69;;;10.03;100.00
32298;BME280;18782;48.984;8.548;2022-10-31T04:15:52;100395.09;;;9.94;100.00
32298;BME280;18782;48.984;8.548;2022-10-31T04:18:22;100404.34;;;9.89;100.00
32298;BME280;18782;48.984;8.548;2022-10-31T04:20:59;100399.25;;;9.91;100.00
32298;BME280;18782;48.984;8.548;2022-10-31T04:23:27;100394.94;;;9.90;100.00
32298;BME280;18782;48.984;8.548;2022-10-31T04:25:56;100400.88;;;9.87;100.00
32298;BME280;18782;48.984;8.548;2022-10-31T04:28:23;100398.03;;;9.80;100.00
32298;BME280;18782;48.984;8.548;2022-10-31T04:30:51;100404.81;;;9.78;100.00
32298;BME280;18782;48.984;8.548;2022-10-31T04:33:21;100401.41;;;9.79;100.00
32298;BME280;18782;48.984;8.548;2022-10-31T04:35:49;100404.69;;;9.75;100.00
32298;BME280;18782;48.984;8.548;2022-10-31T04:38:18;100399.47;;;9.72;100.00
32298;BME280;18782;48.984;8.548;2022-10-31T04:40:47;100395.94;;;9.70;100.00
32298;BME280;18782;48.984;8.548;2022-10-31T04:43:33;100395.84;;;9.66;100.00
32298;BME280;18782;48.984;8.548;2022-10-31T04:46:01;100395.72;;;9.63;100.00
32298;BME280;18782;48.984;8.548;2022-10-31T04:48:29;100399.97;;;9.61;100.00
32298;BME280;18782;48.984;8.548;2022-10-31T04:51:00;100393.88;;;9.59;100.00
32298;BME280;18782;48.984;8.548;2022-10-31T04:53:29;100390.22;;;9.53;100.00
32298;BME280;18782;48.984;8.548;2022-10-31T04:56:16;100391.91;;;9.52;100.00
32298;BME280;18782;48.984;8.548;2022-10-31T04:58:46;100391.03;;;9.52;100.00
32298;BME280;18782;48.984;8.548;2022-10-31T05:01:14;100390.25;;;9.54;100.00
32298;BME280;18782;48.984;8.548;2022-10-31T05:03:44;100388.44;;;9.50;100.00
32298;BME280;18782;48.984;8.548;2022-10-31T05:06:11;100380.59;;;9.47;100.00
32298;BME280;18782;48.984;8.548;2022-10-31T05:08:42;100383.03;;;9.44;100.00
32298;BME280;18782;48.984;8.548;2022-10-31T05:11:10;100383.81;;;9.41;100.00
32298;BME280;18782;48.984;8.548;2022-10-31T05:13:38;100386.22;;;9.37;100.00
32298;BME280;18782;48.984;8.548;2022-10-31T05:16:08;100375.69;;;9.29;100.00
32298;BME280;18782;48.984;8.548;2022-10-31T05:19:14;100381.63;;;9.28;100.00
32298;BME280;18782;48.984;8.548;2022-10-31T05:22:01;100381.63;;;9.28;100.00
32298;BME280;18782;48.984;8.548;2022-10-31T05:24:29;100385.97;;;9.29;100.00
32298;BME280;18782;48.984;8.548;2022-10-31T05:26:57;100379.00;;;9.27;100.00
32298;BME280;18782;48.984;8.548;2022-10-31T05:29:25;100379.00;;;9.27;100.00
32298;BME280;18782;48.984;8.548;2022-10-31T05:31:52;100379.00;;;9.27;100.00
32298;BME280;18782;48.984;8.548;2022-10-31T05:34:58;100384.84;;;9.23;100.00
32298;BME280;18782;48.984;8.548;2022-10-31T05:37:44;100374.47;;;9.20;100.00
32298;BME280;18782;48.984;8.548;2022-10-31T05:40:14;100375.22;;;9.17;100.00
32298;BME280;18782;48.984;8.548;2022-10-31T05:42:42;100365.91;;;9.19;100.00
32298;BME280;18782;48.984;8.548;2022-10-31T05:45:13;100368.28;;;9.14;100.00
32298;BME280;18782;48.984;8.548;2022-10-31T05:47:51;100369.03;;;9.12;100.00
32298;BME280;18782;48.984;8.548;2022-10-31T05:50:37;100369.81;;;9.09;100.00
32298;BME280;18782;48.984;8.548;2022-10-31T05:53:08;100367.13;;;9.06;100.00
32298;BME280;18782;48.984;8.548;2022-10-31T05:55:38;100361.97;;;9.06;100.00
32298;BME280;18782;48.984;8.548;2022-10-31T05:58:17;100364.56;;;9.06;100.00
32298;BME280;18782;48.984;8.548;2022-10-31T06:00:52;100364.56;;;9.06;100.00
32298;BME280;18782;48.984;8.548;2022-10-31T06:03:20;100362.84;;;9.07;100.00
32298;BME280;18782;48.984;8.548;2022-10-31T06:05:55;100359.41;;;9.06;100.00
32298;BME280;18782;48.984;8.548;2022-10-31T06:08:28;100368.81;;;9.06;100.00
32298;BME280;18782;48.984;8.548;2022-10-31T06:11:01;100369.69;;;9.06;100.00
32298;BME280;18782;48.984;8.548;2022-10-31T06:13:47;100372.31;;;9.08;100.00
32298;BME280;18782;48.984;8.548;2022-10-31T06:16:20;100371.50;;;9.09;100.00
32298;BME280;18782;48.984;8.548;2022-10-31T06:18:49;100365.72;;;9.14;100.00
32298;BME280;18782;48.984;8.548;2022-10-31T06:21:17;100366.63;;;9.17;100.00
32298;BME280;18782;48.984;8.548;2022-10-31T06:23:47;100365.00;;;9.19;100.00
32298;BME280;18782;48.984;8.548;2022-10-31T06:26:34;100365.94;;;9.21;100.00
32298;BME280;18782;48.984;8.548;2022-10-31T06:29:02;100361.63;;;9.20;100.00
32298;BME280;18782;48.984;8.548;2022-10-31T06:31:59;100359.84;;;9.19;100.00
32298;BME280;18782;48.984;8.548;2022-10-31T06:34:28;100359.06;;;9.20;100.00
32298;BME280;18782;48.984;8.548;2022-10-31T06:36:56;100357.59;;;9.26;100.00
32298;BME280;18782;48.984;8.548;2022-10-31T06:39:26;100368.72;;;9.27;100.00
32298;BME280;18782;48.984;8.548;2022-10-31T06:41:55;100368.03;;;9.31;100.00
32298;BME280;18782;48.984;8.548;2022-10-31T06:44:25;100367.41;;;9.38;100.00
32298;BME280;18782;48.984;8.548;2022-10-31T06:46:58;100363.31;;;9.43;100.00
32298;BME280;18782;48.984;8.548;2022-10-31T06:49:44;100360.88;;;9.46;100.00
32298;BME280;18782;48.984;8.548;2022-10-31T06:52:15;100360.97;;;9.49;100.00
32298;BME280;18782;48.984;8.548;2022-10-31T06:54:43;100367.91;;;9.52;99.99
32298;BME280;18782;48.984;8.548;2022-10-31T06:57:15;100371.34;;;9.52;100.00
32298;BME280;18782;48.984;8.548;2022-10-31T06:59:43;100374.19;;;9.60;100.00
32298;BME280;18782;48.984;8.548;2022-10-31T07:02:16;100371.06;;;9.68;100.00
32298;BME280;18782;48.984;8.548;2022-10-31T07:04:44;100380.72;;;9.76;100.00
32298;BME280;18782;48.984;8.548;2022-10-31T07:07:13;100374.88;;;9.80;100.00
32298;BME280;18782;48.984;8.548;2022-10-31T07:09:41;100369.16;;;9.87;100.00
32298;BME280;18782;48.984;8.548;2022-10-31T07:12:10;100369.44;;;9.96;100.00
32298;BME280;18782;48.984;8.548;2022-10-31T07:14:49;100369.53;;;9.99;99.60
32298;BME280;18782;48.984;8.548;2022-10-31T07:17:17;100371.50;;;10.06;100.00
32298;BME280;18782;48.984;8.548;2022-10-31T07:19:45;100371.78;;;10.15;100.00
32298;BME280;18782;48.984;8.548;2022-10-31T07:22:15;100378.16;;;10.25;100.00
32298;BME280;18782;48.984;8.548;2022-10-31T07:24:43;100375.94;;;10.36;99.86
32298;BME280;18782;48.984;8.548;2022-10-31T07:27:37;100372.78;;;10.44;98.83
32298;BME280;18782;48.984;8.548;2022-10-31T07:30:12;100374.84;;;10.56;98.42
32298;BME280;18782;48.984;8.548;2022-10-31T07:32:42;100378.53;;;10.64;98.38
32298;BME280;18782;48.984;8.548;2022-10-31T07:35:14;100378.94;;;10.77;99.01
32298;BME280;18782;48.984;8.548;2022-10-31T07:37:48;100380.09;;;11.16;100.00
32298;BME280;18782;48.984;8.548;2022-10-31T07:40:17;100380.09;;;11.46;100.00
32298;BME280;18782;48.984;8.548;2022-10-31T07:42:48;100383.63;;;11.50;100.00
32298;BME280;18782;48.984;8.548;2022-10-31T07:45:50;100374.94;;;11.80;100.00
32298;BME280;18782;48.984;8.548;2022-10-31T07:48:37;100375.63;;;12.04;100.00
32298;BME280;18782;48.984;8.548;2022-10-31T07:51:23;100376.09;;;12.22;99.32
32298;BME280;18782;48.984;8.548;2022-10-31T07:54:10;100380.69;;;12.34;96.86
32298;BME280;18782;48.984;8.548;2022-10-31T07:56:38;100386.31;;;12.54;97.08
32298;BME280;18782;48.984;8.548;2022-10-31T07:59:06;100381.31;;;12.62;95.63
32298;BME280;18782;48.984;8.548;2022-10-31T08:01:35;100379.81;;;12.70;94.55
32298;BME280;18782;48.984;8.548;2022-10-31T08:04:22;100378.31;;;12.79;95.32
32298;BME280;18782;48.984;8.548;2022-10-31T08:07:09;100375.97;;;12.92;90.40
32298;BME280;18782;48.984;8.548;2022-10-31T08:09:38;100383.72;;;12.90;88.58
32298;BME280;18782;48.984;8.548;2022-10-31T08:12:17;100376.75;;;12.88;89.20
32298;BME280;18782;48.984;8.548;2022-10-31T08:14:45;100379.31;;;12.88;89.51
32298;BME280;18782;48.984;8.548;2022-10-31T08:17:17;100373.31;;;12.89;89.90
32298;BME280;18782;48.984;8.548;2022-10-31T08:19:51;100371.84;;;13.00;93.19
32298;BME280;18782;48.984;8.548;2022-10-31T08:22:22;100364.81;;;13.34;94.85
32298;BME280;18782;48.984;8.548;2022-10-31T08:24:50;100365.00;;;13.43;88.34
32298;BME280;18782;48.984;8.548;2022-10-31T08:27:17;100360.75;;;13.46;86.99
32298;BME280;18782;48.984;8.548;2022-10-31T08:29:45;100359.06;;;13.47;86.98
32298;BME280;18782;48.984;8.548;2022-10-31T08:32:13;100353.03;;;13.48;87.47
32298;BME280;18782;48.984;8.548;2022-10-31T08:35:02;100346.34;;;13.59;87.14
32298;BME280;18782;48.984;8.548;2022-10-31T08:37:30;100356.81;;;13.65;88.15
32298;BME280;18782;48.984;8.548;2022-10-31T08:39:57;100359.59;;;13.77;86.97
32298;BME280;18782;48.984;8.548;2022-10-31T08:42:25;100353.81;;;13.91;86.53
32298;BME280;18782;48.984;8.548;2022-10-31T08:44:52;100353.13;;;13.99;86.61
32298;BME280;18782;48.984;8.548;2022-10-31T08:47:21;100348.06;;;14.07;87.29
32298;BME280;18782;48.984;8.548;2022-10-31T08:49:49;100345.66;;;14.19;87.60
32298;BME280;18782;48.984;8.548;2022-10-31T08:52:18;100344.59;;;14.61;93.66
32298;BME280;18782;48.984;8.548;2022-10-31T08:54:47;100348.75;;;15.12;91.45
32298;BME280;18782;48.984;8.548;2022-10-31T08:57:54;100340.63;;;15.56;83.90
32298;BME280;18782;48.984;8.548;2022-10-31T09:00:23;100342.66;;;15.84;85.37
32298;BME280;18782;48.984;8.548;2022-10-31T09:03:08;100349.81;;;16.13;82.38
32298;BME280;18782;48.984;8.548;2022-10-31T09:05:36;100339.69;;;16.47;81.49
32298;BME280;18782;48.984;8.548;2022-10-31T09:08:06;100334.59;;;16.60;77.36
32298;BME280;18782;48.984;8.548;2022-10-31T09:10:43;100334.59;;;16.62;76.14
32298;BME280;18782;48.984;8.548;2022-10-31T09:13:16;100331.09;;;16.57;77.33
32298;BME280;18782;48.984;8.548;2022-10-31T09:16:19;100331.94;;;16.51;77.29
32298;BME280;18782;48.984;8.548;2022-10-31T09:18:47;100332.00;;;16.65;78.91
32298;BME280;18782;48.984;8.548;2022-10-31T09:21:15;100334.69;;;16.74;77.45
32298;BME280;18782;48.984;8.548;2022-10-31T09:23:46;100332.97;;;16.76;77.31
32298;BME280;18782;48.984;8.548;2022-10-31T09:26:14;100330.38;;;16.79;77.28
32298;BME280;18782;48.984;8.548;2022-10-31T09:29:02;100327.78;;;16.76;76.58
32298;BME280;18782;48.984;8.548;2022-10-31T09:31:30;100327.78;;;16.79;78.36
32298;BME280;18782;48.984;8.548;2022-10-31T09:34:03;100333.91;;;16.90;77.77
32298;BME280;18782;48.984;8.548;2022-10-31T09:36:37;100328.72;;;16.92;77.44
32298;BME280;18782;48.984;8.548;2022-10-31T09:39:13;100327.88;;;17.01;78.45
32298;BME280;18782;48.984;8.548;2022-10-31T09:41:55;100327.97;;;17.19;77.24
32298;BME280;18782;48.984;8.548;2022-10-31T09:44:26;100321.09;;;17.39;77.00
32298;BME280;18782;48.984;8.548;2022-10-31T09:47:02;100328.06;;;17.56;76.19
32298;BME280;18782;48.984;8.548;2022-10-31T09:49:48;100318.53;;;17.68;75.71
32298;BME280;18782;48.984;8.548;2022-10-31T09:52:21;100315.13;;;17.76;74.77
32298;BME280;18782;48.984;8.548;2022-10-31T09:54:55;100316.84;;;17.87;74.88
32298;BME280;18782;48.984;8.548;2022-10-31T09:57:31;100305.56;;;18.04;74.30
32298;BME280;18782;48.984;8.548;2022-10-31T10:00:03;100303.81;;;18.21;73.45
32298;BME280;18782;48.984;8.548;2022-10-31T10:02:42;100302.97;;;18.28;72.20
32298;BME280;18782;48.984;8.548;2022-10-31T10:05:14;100302.06;;;18.35;70.82
32298;BME280;18782;48.984;8.548;2022-10-31T10:07:49;100293.38;;;18.39;69.90
32298;BME280;18782;48.984;8.548;2022-10-31T10:10:47;100302.06;;;18.26;70.27
32298;BME280;18782;48.984;8.548;2022-10-31T10:13:50;100291.69;;;18.14;70.63
32298;BME280;18782;48.984;8.548;2022-10-31T10:16:31;100292.53;;;18.10;71.69
32298;BME280;18782;48.984;8.548;2022-10-31T10:19:14;100293.44;;;17.96;71.39
32298;BME280;18782;48.984;8.548;2022-10-31T10:21:51;100296.03;;;17.96;72.79
32298;BME280;18782;48.984;8.548;2022-10-31T10:24:33;100288.22;;;18.12;73.23
32298;BME280;18782;48.984;8.548;2022-10-31T10:27:25;100288.19;;;18.18;72.69
32298;BME280;18782;48.984;8.548;2022-10-31T10:30:02;100283.84;;;18.28;71.82
32298;BME280;18782;48.984;8.548;2022-10-31T10:32:34;100285.56;;;18.38;71.92
32298;BME280;18782;48.984;8.548;2022-10-31T10:35:14;100284.66;;;18.46;72.47
32298;BME280;18782;48.984;8.548;2022-10-31T10:37:46;100280.31;;;18.55;72.51
32298;BME280;18782;48.984;8.548;2022-10-31T10:40:19;100274.22;;;18.68;71.75
32298;BME280;18782;48.984;8.548;2022-10-31T10:43:00;100275.03;;;18.81;70.56
32298;BME280;18782;48.984;8.548;2022-10-31T10:45:50;100279.31;;;18.98;70.87
32298;BME280;18782;48.984;8.548;2022-10-31T10:48:42;100274.88;;;19.14;70.36
32298;BME280;18782;48.984;8.548;2022-10-31T10:51:20;100268.72;;;19.24;70.33
32298;BME280;18782;48.984;8.548;2022-10-31T10:54:17;100265.22;;;19.33;69.97
32298;BME280;18782;48.984;8.548;2022-10-31T10:56:56;100268.56;;;19.53;70.84
32298;BME280;18782;48.984;8.548;2022-10-31T10:59:27;100256.34;;;19.55;70.99
32298;BME280;18782;48.984;8.548;2022-10-31T11:01:58;100254.59;;;19.64;69.60
32298;BME280;18782;48.984;8.548;2022-10-31T11:04:31;100257.97;;;19.75;68.01
32298;BME280;18782;48.984;8.548;2022-10-31T11:07:01;100255.44;;;19.69;68.18
32298;BME280;18782;48.984;8.548;2022-10-31T11:09:29;100248.53;;;19.54;68.04
32298;BME280;18782;48.984;8.548;2022-10-31T11:11:57;100245.13;;;19.41;66.24
32298;BME280;18782;48.984;8.548;2022-10-31T11:14:28;100249.56;;;19.33;69.31
32298;BME280;18782;48.984;8.548;2022-10-31T11:17:10;100226.09;;;19.27;70.20
32298;BME280;18782;48.984;8.548;2022-10-31T11:19:43;100222.59;;;19.29;69.85
32298;BME280;18782;48.984;8.548;2022-10-31T11:22:16;100219.91;;;19.40;69.80
32298;BME280;18782;48.984;8.548;2022-10-31T11:24:44;100225.16;;;19.37;69.43
32298;BME280;18782;48.984;8.548;2022-10-31T11:27:15;100222.47;;;19.46;70.08
32298;BME280;18782;48.984;8.548;2022-10-31T11:29:45;100225.84;;;19.65;68.98
32298;BME280;18782;48.984;8.548;2022-10-31T11:32:19;100218.00;;;19.67;69.15
32298;BME280;18782;48.984;8.548;2022-10-31T11:34:50;100219.69;;;19.74;67.35
32298;BME280;18782;48.984;8.548;2022-10-31T11:37:21;100218.88;;;19.66;66.89
32298;BME280;18782;48.984;8.548;2022-10-31T11:39:51;100213.00;;;19.33;67.34
32298;BME280;18782;48.984;8.548;2022-10-31T11:42:21;100206.06;;;19.26;68.28
32298;BME280;18782;48.984;8.548;2022-10-31T11:44:53;100204.41;;;19.19;70.02
32298;BME280;18782;48.984;8.548;2022-10-31T11:47:26;100202.63;;;19.24;68.65
32298;BME280;18782;48.984;8.548;2022-10-31T11:49:55;100208.75;;;19.15;69.09
32298;BME280;18782;48.984;8.548;2022-10-31T11:52:25;100202.63;;;19.21;69.75
32298;BME280;18782;48.984;8.548;2022-10-31T11:54:56;100197.41;;;19.21;69.31
32298;BME280;18782;48.984;8.548;2022-10-31T11:57:27;100197.34;;;19.30;69.47
32298;BME280;18782;48.984;8.548;2022-10-31T11:59:58;100200.78;;;19.38;69.74
32298;BME280;18782;48.984;8.548;2022-10-31T12:02:26;100198.97;;;19.49;70.20
32298;BME280;18782;48.984;8.548;2022-10-31T12:05:01;100190.13;;;19.69;70.02
32298;BME280;18782;48.984;8.548;2022-10-31T12:07:30;100198.72;;;19.80;69.31
32298;BME280;18782;48.984;8.548;2022-10-31T12:09:57;100185.53;;;19.92;69.20
32298;BME280;18782;48.984;8.548;2022-10-31T12:12:45;100198.47;;;20.07;68.24
32298;BME280;18782;48.984;8.548;2022-10-31T12:15:27;100200.09;;;20.18;66.69
32298;BME280;18782;48.984;8.548;2022-10-31T12:18:08;100191.28;;;20.28;66.94
32298;BME280;18782;48.984;8.548;2022-10-31T12:20:46;100181.47;;;20.45;67.27
32298;BME280;18782;48.984;8.548;2022-10-31T12:23:24;100169.22;;;20.53;66.78
32298;BME280;18782;48.984;8.548;2022-10-31T12:26:10;100163.16;;;20.48;66.41
32298;BME280;18782;48.984;8.548;2022-10-31T12:28:52;100154.50;;;20.40;66.48
32298;BME280;18782;48.984;8.548;2022-10-31T12:31:35;100145.69;;;20.50;66.27
32298;BME280;18782;48.984;8.548;2022-10-31T12:34:49;100142.25;;;20.48;66.61
32298;BME280;18782;48.984;8.548;2022-10-31T12:37:31;100131.72;;;20.51;66.33
32298;BME280;18782;48.984;8.548;2022-10-31T12:40:17;100124.88;;;20.40;66.76
32298;BME280;18782;48.984;8.548;2022-10-31T12:42:58;100120.66;;;20.31;66.77
32298;BME280;18782;48.984;8.548;2022-10-31T12:45:51;100129.63;;;20.08;66.71
32298;BME280;18782;48.984;8.548;2022-10-31T12:48:49;100124.72;;;19.79;66.48
32298;BME280;18782;48.984;8.548;2022-10-31T12:51:28;100121.44;;;19.59;67.39
32298;BME280;18782;48.984;8.548;2022-10-31T12:54:15;100106.00;;;19.33;68.40
32298;BME280;18782;48.984;8.548;2022-10-31T12:56:52;100098.22;;;19.24;69.98
32298;BME280;18782;48.984;8.548;2022-10-31T12:59:28;100097.41;;;19.22;69.20
32298;BME280;18782;48.984;8.548;2022-10-31T13:02:00;100088.66;;;19.27;68.55
32298;BME280;18782;48.984;8.548;2022-10-31T13:04:42;100086.75;;;19.42;68.56
32298;BME280;18782;48.984;8.548;2022-10-31T13:07:15;100079.38;;;19.84;66.96
32298;BME280;18782;48.984;8.548;2022-10-31T13:09:51;100079.16;;;20.73;63.44
32298;BME280;18782;48.984;8.548;2022-10-31T13:12:21;100076.53;;;21.27;62.29
32298;BME280;18782;48.984;8.548;2022-10-31T13:14:52;100072.38;;;22.11;59.88
32298;BME280;18782;48.984;8.548;2022-10-31T13:17:28;100080.50;;;22.40;57.09
32298;BME280;18782;48.984;8.548;2022-10-31T13:20:08;100102.00;;;22.56;57.50
32298;BME280;18782;48.984;8.548;2022-10-31T13:22:42;100106.72;;;22.40;57.30
32298;BME280;18782;48.984;8.548;2022-10-31T13:25:15;100096.28;;;22.37;57.71